createdAt,value
2018-04-18T00:00:52.073Z,0.00
2018-04-18T00:01:52.079Z,0.00
2018-04-18T00:02:52.077Z,0.00
2018-04-18T00:03:52.078Z,0.00
2018-04-18T00:04:52.120Z,0.00
2018-04-18T00:05:52.075Z,0.00
2018-04-18T00:06:52.074Z,0.00
2018-04-18T00:07:52.071Z,0.00
2018-04-18T00:08:52.071Z,0.00
2018-04-18T00:09:52.118Z,0.00
2018-04-18T00:10:52.071Z,0.00
2018-04-18T00:11:52.067Z,0.00
2018-04-18T00:12:52.075Z,0.00
2018-04-18T00:13:52.068Z,0.00
2018-04-18T00:14:52.113Z,0.00
2018-04-18T00:15:52.079Z,0.00
2018-04-18T00:16:52.062Z,0.00
2018-04-18T00:17:52.066Z,0.00
2018-04-18T00:18:52.144Z,0.00
2018-04-18T00:19:52.117Z,0.00
2018-04-18T00:20:52.060Z,0.00
2018-04-18T00:21:52.060Z,0.00
2018-04-18T00:22:52.062Z,0.00
2018-04-18T00:23:52.059Z,0.00
2018-04-18T00:24:52.111Z,0.00
2018-04-18T00:25:52.057Z,0.00
2018-04-18T00:26:52.174Z,0.00
2018-04-18T00:27:52.873Z,0.00
2018-04-18T00:28:52.053Z,0.00
2018-04-18T00:29:52.098Z,0.00
2018-04-18T00:30:52.049Z,0.00
2018-04-18T00:31:52.109Z,0.00
2018-04-18T00:32:52.049Z,0.00
2018-04-18T00:33:52.050Z,0.00
2018-04-18T00:35:03.062Z,0.00
2018-04-18T00:35:52.047Z,0.00
2018-04-18T00:36:52.051Z,0.00
2018-04-18T00:37:52.048Z,0.00
2018-04-18T00:38:52.049Z,0.00
2018-04-18T00:39:52.083Z,0.00
2018-04-18T00:40:52.042Z,0.00
2018-04-18T00:41:52.384Z,0.00
2018-04-18T00:42:52.038Z,0.00
2018-04-18T00:43:52.040Z,0.00
2018-04-18T00:44:52.199Z,0.00
2018-04-18T00:45:52.035Z,0.00
2018-04-18T00:46:52.036Z,0.00
2018-04-18T00:47:52.035Z,0.00
2018-04-18T00:48:52.028Z,0.00
2018-04-18T00:49:52.032Z,0.00
2018-04-18T00:50:52.077Z,0.00
2018-04-18T00:51:52.030Z,0.00
2018-04-18T00:52:52.028Z,0.00
2018-04-18T00:53:52.026Z,0.00
2018-04-18T00:54:52.027Z,0.00
2018-04-18T00:55:52.086Z,0.00
2018-04-18T00:56:52.024Z,0.00
2018-04-18T00:57:52.025Z,0.00
2018-04-18T00:58:53.038Z,0.00
2018-04-18T00:59:52.021Z,0.00
2018-04-18T01:00:52.092Z,0.00
2018-04-18T01:01:52.020Z,0.00
2018-04-18T01:02:52.017Z,0.00
2018-04-18T01:03:52.011Z,0.00
2018-04-18T01:04:52.020Z,0.00
2018-04-18T01:05:52.072Z,0.00
2018-04-18T01:06:52.013Z,0.00
2018-04-18T01:07:52.005Z,0.00
2018-04-18T01:08:52.010Z,0.00
2018-04-18T01:09:52.005Z,0.00
2018-04-18T01:10:52.004Z,0.00
2018-04-18T01:11:52.046Z,0.00
2018-04-18T01:12:51.995Z,0.00
2018-04-18T01:13:51.998Z,0.00
2018-04-18T01:14:52.006Z,0.00
2018-04-18T01:15:52.059Z,0.00
2018-04-18T01:16:51.998Z,0.00
2018-04-18T01:17:51.995Z,0.00
2018-04-18T01:18:52.001Z,0.00
2018-04-18T01:19:51.986Z,0.00
2018-04-18T01:20:51.992Z,0.00
2018-04-18T01:21:52.047Z,0.00
2018-04-18T01:22:51.983Z,0.00
2018-04-18T01:23:51.987Z,0.00
2018-04-18T01:24:51.990Z,0.00
2018-04-18T01:25:51.988Z,0.00
2018-04-18T01:26:52.075Z,0.00
2018-04-18T01:27:51.984Z,0.00
2018-04-18T01:28:51.979Z,0.00
2018-04-18T01:29:51.973Z,0.00
2018-04-18T01:30:51.979Z,0.00
2018-04-18T01:31:53.711Z,0.00
2018-04-18T01:32:51.967Z,0.00
2018-04-18T01:33:51.973Z,0.00
2018-04-18T01:34:51.972Z,0.00
2018-04-18T01:35:51.969Z,0.00
2018-04-18T01:36:51.965Z,0.00
2018-04-18T01:37:52.089Z,0.00
2018-04-18T01:38:51.992Z,0.00
2018-04-18T01:39:51.967Z,0.00
2018-04-18T01:40:51.966Z,0.00
2018-04-18T01:41:51.960Z,0.00
2018-04-18T01:42:52.022Z,0.00
2018-04-18T01:43:51.955Z,0.00
2018-04-18T01:44:52.343Z,0.00
2018-04-18T01:45:51.952Z,0.00
2018-04-18T01:47:13.576Z,0.00
2018-04-18T01:47:51.948Z,0.00
2018-04-18T01:48:51.948Z,0.00
2018-04-18T01:49:51.949Z,0.00
2018-04-18T01:50:52.879Z,0.00
2018-04-18T01:51:51.985Z,0.00
2018-04-18T01:52:51.943Z,0.00
2018-04-18T01:53:51.940Z,0.00
2018-04-18T01:54:51.931Z,0.00
2018-04-18T01:55:51.935Z,0.00
2018-04-18T01:56:51.982Z,0.00
2018-04-18T01:57:51.937Z,0.00
2018-04-18T01:58:52.032Z,0.00
2018-04-18T01:59:51.931Z,0.00
2018-04-18T02:00:51.925Z,0.00
2018-04-18T02:01:52.087Z,0.00
2018-04-18T02:02:51.929Z,0.00
2018-04-18T02:03:51.915Z,0.00
2018-04-18T02:04:51.921Z,0.00
2018-04-18T02:05:51.923Z,0.00
2018-04-18T02:06:51.917Z,0.00
2018-04-18T02:07:51.963Z,0.00
2018-04-18T02:08:51.917Z,0.00
2018-04-18T02:09:51.904Z,0.00
2018-04-18T02:10:51.907Z,0.00
2018-04-18T02:11:51.951Z,0.00
2018-04-18T02:12:51.906Z,0.00
2018-04-18T02:13:51.907Z,0.00
2018-04-18T02:14:51.903Z,0.00
2018-04-18T02:15:51.903Z,0.00
2018-04-18T02:16:51.943Z,0.00
2018-04-18T02:17:51.898Z,0.00
2018-04-18T02:18:51.892Z,0.00
2018-04-18T02:19:51.895Z,0.00
2018-04-18T02:20:51.893Z,0.00
2018-04-18T02:21:51.934Z,0.00
2018-04-18T02:22:51.889Z,0.00
2018-04-18T02:23:52.716Z,0.00
2018-04-18T02:24:51.887Z,0.00
2018-04-18T02:25:51.880Z,0.00
2018-04-18T02:26:51.923Z,0.00
2018-04-18T02:27:51.881Z,0.00
2018-04-18T02:28:51.872Z,0.00
2018-04-18T02:29:51.878Z,0.00
2018-04-18T02:30:51.880Z,0.00
2018-04-18T02:31:51.927Z,0.00
2018-04-18T02:32:51.871Z,0.00
2018-04-18T02:33:51.864Z,0.00
2018-04-18T02:34:51.944Z,0.00
2018-04-18T02:35:51.864Z,0.00
2018-04-18T02:37:02.559Z,0.00
2018-04-18T02:37:51.860Z,0.00
2018-04-18T02:38:51.852Z,0.00
2018-04-18T02:39:51.861Z,0.00
2018-04-18T02:40:51.857Z,0.00
2018-04-18T02:41:52.296Z,0.00
2018-04-18T02:42:51.856Z,0.00
2018-04-18T02:43:51.848Z,0.00
2018-04-18T02:44:51.841Z,0.00
2018-04-18T02:45:51.848Z,0.00
2018-04-18T02:46:51.907Z,0.00
2018-04-18T02:47:51.840Z,0.00
2018-04-18T02:48:51.844Z,0.00
2018-04-18T02:49:51.840Z,0.00
2018-04-18T02:50:51.836Z,0.00
2018-04-18T02:51:51.887Z,0.00
2018-04-18T02:52:51.836Z,0.00
2018-04-18T02:53:51.827Z,0.00
2018-04-18T02:54:51.830Z,0.00
2018-04-18T02:55:51.827Z,0.00
2018-04-18T02:56:51.871Z,0.00
2018-04-18T02:57:51.825Z,0.00
2018-04-18T02:58:51.820Z,0.00
2018-04-18T02:59:51.827Z,0.00
2018-04-18T03:00:51.873Z,0.00
2018-04-18T03:01:51.815Z,0.00
2018-04-18T03:02:51.811Z,0.00
2018-04-18T03:03:51.809Z,0.00
2018-04-18T03:04:51.807Z,0.00
2018-04-18T03:05:51.808Z,0.00
2018-04-18T03:06:51.853Z,0.00
2018-04-18T03:07:51.800Z,0.00
2018-04-18T03:08:51.801Z,0.00
2018-04-18T03:09:51.797Z,0.00
2018-04-18T03:10:51.797Z,0.00
2018-04-18T03:11:51.835Z,0.00
2018-04-18T03:12:51.790Z,0.00
2018-04-18T03:13:51.784Z,0.00
2018-04-18T03:14:51.791Z,0.00
2018-04-18T03:15:51.785Z,0.00
2018-04-18T03:16:51.833Z,0.00
2018-04-18T03:17:51.781Z,0.00
2018-04-18T03:18:51.781Z,0.00
2018-04-18T03:19:51.786Z,0.00
2018-04-18T03:20:51.777Z,0.00
2018-04-18T03:22:02.735Z,0.00
2018-04-18T03:22:51.796Z,0.00
2018-04-18T03:23:51.798Z,0.00
2018-04-18T03:24:51.849Z,0.00
2018-04-18T03:25:51.791Z,0.00
2018-04-18T03:26:51.786Z,0.00
2018-04-18T03:27:51.822Z,0.00
2018-04-18T03:28:51.778Z,0.00
2018-04-18T03:29:51.781Z,0.00
2018-04-18T03:30:51.779Z,0.00
2018-04-18T03:31:51.779Z,0.00
2018-04-18T03:32:51.889Z,0.00
2018-04-18T03:33:51.771Z,0.00
2018-04-18T03:34:52.424Z,0.00
2018-04-18T03:35:51.817Z,0.00
2018-04-18T03:36:51.764Z,0.00
2018-04-18T03:37:52.555Z,4.00
2018-04-18T03:38:51.763Z,4.00
2018-04-18T03:39:51.992Z,0.00
2018-04-18T03:40:51.787Z,4.00
2018-04-18T03:41:51.767Z,4.00
2018-04-18T03:42:51.806Z,4.00
2018-04-18T03:44:03.331Z,8.00
2018-04-18T03:44:51.751Z,4.00
2018-04-18T03:45:51.743Z,8.00
2018-04-18T03:46:51.773Z,12.00
2018-04-18T03:47:51.744Z,12.00
2018-04-18T03:48:51.791Z,12.00
2018-04-18T03:49:51.749Z,16.00
2018-04-18T03:50:51.742Z,20.00
2018-04-18T03:51:51.735Z,24.00
2018-04-18T03:52:59.568Z,28.00
2018-04-18T03:53:51.727Z,32.00
2018-04-18T03:54:51.723Z,40.00
2018-04-18T03:55:51.723Z,44.00
2018-04-18T03:56:55.902Z,52.00
2018-04-18T03:57:53.582Z,64.00
2018-04-18T03:58:51.716Z,72.00
2018-04-18T03:59:51.721Z,84.00
2018-04-18T04:00:51.719Z,96.00
2018-04-18T04:01:51.714Z,112.00
2018-04-18T04:02:51.774Z,128.00
2018-04-18T04:03:51.708Z,144.00
2018-04-18T04:04:51.712Z,164.00
2018-04-18T04:05:51.706Z,188.00
2018-04-18T04:06:51.710Z,208.00
2018-04-18T04:07:51.880Z,236.00
2018-04-18T04:08:51.704Z,264.00
2018-04-18T04:09:51.699Z,300.00
2018-04-18T04:10:51.696Z,332.00
2018-04-18T04:11:51.695Z,368.00
2018-04-18T04:12:51.688Z,408.00
2018-04-18T04:13:51.748Z,448.00
2018-04-18T04:14:51.689Z,492.00
2018-04-18T04:15:51.684Z,536.00
2018-04-18T04:16:51.680Z,584.00
2018-04-18T04:17:51.681Z,636.00
2018-04-18T04:18:51.677Z,688.00
2018-04-18T04:19:51.753Z,744.00
2018-04-18T04:20:51.677Z,800.00
2018-04-18T04:21:51.672Z,864.00
2018-04-18T04:22:51.673Z,924.00
2018-04-18T04:23:51.725Z,988.00
2018-04-18T04:24:51.729Z,1052.00
2018-04-18T04:25:51.665Z,1116.00
2018-04-18T04:26:51.661Z,1180.00
2018-04-18T04:27:51.657Z,1252.00
2018-04-18T04:28:51.655Z,1324.00
2018-04-18T04:29:51.697Z,1396.00
2018-04-18T04:30:51.652Z,1476.00
2018-04-18T04:31:51.655Z,1552.00
2018-04-18T04:32:51.648Z,1628.00
2018-04-18T04:33:51.643Z,1708.00
2018-04-18T04:34:51.852Z,1788.00
2018-04-18T04:35:51.645Z,1872.00
2018-04-18T04:36:51.632Z,1956.00
2018-04-18T04:37:51.646Z,2040.00
2018-04-18T04:38:51.643Z,2128.00
2018-04-18T04:39:51.635Z,2212.00
2018-04-18T04:40:51.678Z,2308.00
2018-04-18T04:41:51.632Z,2396.00
2018-04-18T04:42:51.626Z,2480.00
2018-04-18T04:43:51.631Z,2572.00
2018-04-18T04:44:51.685Z,2668.00
2018-04-18T04:45:51.926Z,2760.00
2018-04-18T04:46:51.619Z,2856.00
2018-04-18T04:47:53.784Z,2952.00
2018-04-18T04:48:51.612Z,3028.00
2018-04-18T04:49:59.548Z,3120.00
2018-04-18T04:50:51.666Z,3236.00
2018-04-18T04:51:51.610Z,3336.00
2018-04-18T04:52:51.603Z,3420.00
2018-04-18T04:53:51.611Z,3524.00
2018-04-18T04:54:51.604Z,3636.00
2018-04-18T04:55:52.600Z,3748.00
2018-04-18T04:56:51.595Z,3836.00
2018-04-18T04:57:51.596Z,3912.00
2018-04-18T04:58:51.597Z,4008.00
2018-04-18T04:59:51.596Z,4092.00
2018-04-18T05:00:51.645Z,4212.00
2018-04-18T05:01:51.588Z,4320.00
2018-04-18T05:02:51.606Z,4408.00
2018-04-18T05:03:51.585Z,4496.00
2018-04-18T05:04:51.633Z,4656.00
2018-04-18T05:05:51.583Z,4848.00
2018-04-18T05:06:51.583Z,5028.00
2018-04-18T05:07:51.582Z,5128.00
2018-04-18T05:08:51.573Z,5240.00
2018-04-18T05:09:51.617Z,5324.00
2018-04-18T05:10:51.601Z,5436.00
2018-04-18T05:11:51.576Z,5636.00
2018-04-18T05:12:51.579Z,5772.00
2018-04-18T05:13:51.572Z,5848.00
2018-04-18T05:14:51.629Z,5896.00
2018-04-18T05:15:51.571Z,5864.00
2018-04-18T05:16:51.569Z,5952.00
2018-04-18T05:17:51.570Z,6044.00
2018-04-18T05:18:51.569Z,6352.00
2018-04-18T05:19:51.619Z,6488.00
2018-04-18T05:20:51.563Z,6588.00
2018-04-18T05:21:51.558Z,6716.00
2018-04-18T05:22:51.569Z,6824.00
2018-04-18T05:23:51.560Z,6908.00
2018-04-18T05:24:51.598Z,6972.00
2018-04-18T05:25:51.554Z,7084.00
2018-04-18T05:26:51.558Z,7200.00
2018-04-18T05:27:51.554Z,7356.00
2018-04-18T05:28:51.552Z,7464.00
2018-04-18T05:29:51.606Z,7516.00
2018-04-18T05:30:51.629Z,7648.00
2018-04-18T05:31:52.515Z,7584.00
2018-04-18T05:32:52.540Z,7636.00
2018-04-18T05:33:51.550Z,7672.00
2018-04-18T05:34:52.215Z,7732.00
2018-04-18T05:35:51.552Z,7780.00
2018-04-18T05:36:51.557Z,7808.00
2018-04-18T05:37:51.554Z,7864.00
2018-04-18T05:38:51.579Z,7936.00
2018-04-18T05:39:51.604Z,7972.00
2018-04-18T05:40:51.555Z,8024.00
2018-04-18T05:41:51.556Z,8056.00
2018-04-18T05:42:51.547Z,8100.00
2018-04-18T05:43:51.552Z,8160.00
2018-04-18T05:44:51.596Z,8216.00
2018-04-18T05:45:51.552Z,8256.00
2018-04-18T05:46:51.556Z,8336.00
2018-04-18T05:47:51.552Z,8456.00
2018-04-18T05:48:51.555Z,8612.00
2018-04-18T05:49:51.600Z,8700.00
2018-04-18T05:50:51.648Z,8760.00
2018-04-18T05:51:51.553Z,8812.00
2018-04-18T05:52:51.564Z,8796.00
2018-04-18T05:53:51.561Z,8872.00
2018-04-18T05:54:51.623Z,8948.00
2018-04-18T05:55:51.560Z,9092.00
2018-04-18T05:56:51.566Z,9068.00
2018-04-18T05:57:51.564Z,9056.00
2018-04-18T05:58:51.573Z,9108.00
2018-04-18T05:59:51.870Z,9100.00
2018-04-18T06:00:51.571Z,9104.00
2018-04-18T06:01:51.569Z,9136.00
2018-04-18T06:02:51.583Z,9044.00
2018-04-18T06:03:51.973Z,9176.00
2018-04-18T06:04:51.612Z,9296.00
2018-04-18T06:06:06.110Z,9608.00
2018-04-18T06:06:51.583Z,9608.00
2018-04-18T06:07:51.577Z,9708.00
2018-04-18T06:08:51.582Z,9920.00
2018-04-18T06:09:51.588Z,10168.00
2018-04-18T06:10:55.304Z,10260.00
2018-04-18T06:11:51.586Z,10268.00
2018-04-18T06:12:51.592Z,10284.00
2018-04-18T06:13:51.593Z,9992.00
2018-04-18T06:14:51.595Z,10148.00
2018-04-18T06:15:51.643Z,10092.00
2018-04-18T06:16:51.602Z,10144.00
2018-04-18T06:17:51.627Z,10144.00
2018-04-18T06:18:51.610Z,10208.00
2018-04-18T06:19:51.831Z,10108.00
2018-04-18T06:20:51.611Z,10224.00
2018-04-18T06:21:51.617Z,10328.00
2018-04-18T06:22:51.838Z,10424.00
2018-04-18T06:23:51.623Z,10416.00
2018-04-18T06:24:52.063Z,10424.00
2018-04-18T06:25:51.630Z,10512.00
2018-04-18T06:26:51.637Z,10428.00
2018-04-18T06:27:51.652Z,10572.00
2018-04-18T06:28:51.646Z,10468.00
2018-04-18T06:29:52.548Z,10244.00
2018-04-18T06:30:51.687Z,9992.00
2018-04-18T06:31:51.686Z,10248.00
2018-04-18T06:32:51.661Z,10476.00
2018-04-18T06:33:51.667Z,10592.00
2018-04-18T06:34:51.662Z,10788.00
2018-04-18T06:35:51.723Z,10924.00
2018-04-18T06:36:51.676Z,11248.00
2018-04-18T06:37:51.764Z,11428.00
2018-04-18T06:38:51.679Z,11504.00
2018-04-18T06:39:51.689Z,11644.00
2018-04-18T06:40:51.728Z,11692.00
2018-04-18T06:41:51.697Z,11928.00
2018-04-18T06:42:51.706Z,11848.00
2018-04-18T06:43:51.705Z,11832.00
2018-04-18T06:44:51.710Z,12480.00
2018-04-18T06:45:51.770Z,12776.00
2018-04-18T06:46:51.725Z,13060.00
2018-04-18T06:47:53.414Z,13268.00
2018-04-18T06:48:51.727Z,13428.00
2018-04-18T06:49:51.838Z,13580.00
2018-04-18T06:50:59.605Z,13824.00
2018-04-18T06:51:51.749Z,14152.00
2018-04-18T06:52:51.745Z,14368.00
2018-04-18T06:53:51.758Z,14700.00
2018-04-18T06:54:51.759Z,15024.00
2018-04-18T06:56:02.621Z,15128.00
2018-04-18T06:56:51.769Z,15124.00
2018-04-18T06:57:51.781Z,15260.00
2018-04-18T06:58:51.788Z,15804.00
2018-04-18T06:59:51.791Z,16064.00
2018-04-18T07:00:55.115Z,15952.00
2018-04-18T07:01:51.805Z,16232.00
2018-04-18T07:02:51.818Z,16964.00
2018-04-18T07:03:51.813Z,17620.00
2018-04-18T07:04:51.826Z,17816.00
2018-04-18T07:05:52.029Z,17988.00
2018-04-18T07:06:51.833Z,18184.00
2018-04-18T07:07:51.854Z,18384.00
2018-04-18T07:08:51.847Z,18452.00
2018-04-18T07:09:51.856Z,18616.00
2018-04-18T07:10:51.863Z,18848.00
2018-04-18T07:11:51.916Z,19040.00
2018-04-18T07:12:51.879Z,19008.00
2018-04-18T07:13:51.882Z,18976.00
2018-04-18T07:14:51.891Z,19296.00
2018-04-18T07:15:52.046Z,19840.00
2018-04-18T07:16:52.640Z,20160.00
2018-04-18T07:17:51.912Z,20192.00
2018-04-18T07:18:51.924Z,20320.00
2018-04-18T07:19:51.941Z,20544.00
2018-04-18T07:20:51.940Z,20928.00
2018-04-18T07:21:52.016Z,21248.00
2018-04-18T07:22:51.949Z,21376.00
2018-04-18T07:23:51.958Z,21504.00
2018-04-18T07:24:51.980Z,22208.00
2018-04-18T07:25:51.980Z,22624.00
2018-04-18T07:26:52.766Z,23232.00
2018-04-18T07:27:51.992Z,24192.00
2018-04-18T07:28:52.005Z,25216.00
2018-04-18T07:29:52.010Z,26144.00
2018-04-18T07:30:52.017Z,27648.00
2018-04-18T07:31:52.025Z,28992.00
2018-04-18T07:32:52.091Z,29280.00
2018-04-18T07:33:52.049Z,28288.00
2018-04-18T07:34:52.063Z,27488.00
2018-04-18T07:35:52.069Z,27168.00
2018-04-18T07:36:52.076Z,27936.00
2018-04-18T07:37:52.161Z,28608.00
2018-04-18T07:38:52.098Z,28448.00
2018-04-18T07:39:52.105Z,27616.00
2018-04-18T07:40:52.122Z,28256.00
2018-04-18T07:41:52.134Z,29024.00
2018-04-18T07:42:55.622Z,29088.00
2018-04-18T07:43:52.146Z,28768.00
2018-04-18T07:44:52.160Z,27808.00
2018-04-18T07:45:52.166Z,27392.00
2018-04-18T07:46:52.195Z,28064.00
2018-04-18T07:47:52.229Z,28352.00
2018-04-18T07:48:52.207Z,27808.00
2018-04-18T07:49:52.219Z,27552.00
2018-04-18T07:50:52.231Z,27552.00
2018-04-18T07:51:52.231Z,26624.00
2018-04-18T07:52:52.299Z,26144.00
2018-04-18T07:53:52.266Z,25600.00
2018-04-18T07:54:52.327Z,25504.00
2018-04-18T07:55:52.353Z,25408.00
2018-04-18T07:56:52.288Z,26016.00
2018-04-18T07:57:52.655Z,27232.00
2018-04-18T07:58:52.317Z,28288.00
2018-04-18T07:59:52.335Z,28992.00
2018-04-18T08:00:52.342Z,28064.00
2018-04-18T08:01:52.622Z,26240.00
2018-04-18T08:02:55.625Z,24128.00
2018-04-18T08:03:52.380Z,22464.00
2018-04-18T08:04:52.390Z,21760.00
2018-04-18T08:05:52.400Z,20928.00
2018-04-18T08:06:52.491Z,20576.00
2018-04-18T08:07:52.424Z,20608.00
2018-04-18T08:08:52.432Z,19584.00
2018-04-18T08:09:52.563Z,19040.00
2018-04-18T08:10:52.478Z,18368.00
2018-04-18T08:11:52.473Z,18272.00
2018-04-18T08:12:52.543Z,17528.00
2018-04-18T08:13:52.507Z,17864.00
2018-04-18T08:14:52.521Z,17544.00
2018-04-18T08:15:52.533Z,17352.00
2018-04-18T08:16:52.541Z,18008.00
2018-04-18T08:17:52.604Z,17724.00
2018-04-18T08:18:52.573Z,17656.00
2018-04-18T08:19:52.594Z,17480.00
2018-04-18T08:20:52.593Z,17336.00
2018-04-18T08:21:52.623Z,17224.00
2018-04-18T08:22:52.675Z,17124.00
2018-04-18T08:23:53.031Z,17132.00
2018-04-18T08:24:52.648Z,17116.00
2018-04-18T08:25:52.661Z,16944.00
2018-04-18T08:26:52.674Z,17100.00
2018-04-18T08:28:03.660Z,17028.00
2018-04-18T08:28:52.702Z,17048.00
2018-04-18T08:29:52.787Z,16972.00
2018-04-18T08:30:52.745Z,17088.00
2018-04-18T08:31:52.760Z,17116.00
2018-04-18T08:32:52.776Z,17080.00
2018-04-18T08:33:53.639Z,17056.00
2018-04-18T08:34:52.796Z,17028.00
2018-04-18T08:35:52.802Z,17032.00
2018-04-18T08:36:52.832Z,17316.00
2018-04-18T08:37:52.848Z,17304.00
2018-04-18T08:38:52.940Z,17632.00
2018-04-18T08:39:52.865Z,17948.00
2018-04-18T08:40:52.891Z,17912.00
2018-04-18T08:41:52.892Z,18184.00
2018-04-18T08:42:52.916Z,18496.00
2018-04-18T08:43:52.997Z,18396.00
2018-04-18T08:44:52.955Z,18420.00
2018-04-18T08:45:52.966Z,18824.00
2018-04-18T08:46:52.991Z,18832.00
2018-04-18T08:47:52.991Z,19168.00
2018-04-18T08:48:53.064Z,20224.00
2018-04-18T08:49:53.020Z,22144.00
2018-04-18T08:50:53.047Z,25440.00
2018-04-18T08:51:53.074Z,28960.00
2018-04-18T08:52:53.090Z,30208.00
2018-04-18T08:53:53.141Z,31520.00
2018-04-18T08:54:53.112Z,34464.00
2018-04-18T08:55:53.129Z,35072.00
2018-04-18T08:56:53.146Z,32768.00
2018-04-18T08:57:54.245Z,33504.00
2018-04-18T08:58:53.172Z,35840.00
2018-04-18T08:59:53.190Z,35104.00
2018-04-18T09:00:53.213Z,35136.00
2018-04-18T09:01:53.231Z,35136.00
2018-04-18T09:02:53.313Z,29824.00
2018-04-18T09:03:53.257Z,24064.00
2018-04-18T09:04:53.293Z,25184.00
2018-04-18T09:05:53.305Z,25504.00
2018-04-18T09:06:53.313Z,26880.00
2018-04-18T09:07:53.413Z,27200.00
2018-04-18T09:08:53.346Z,27072.00
2018-04-18T09:09:53.375Z,29248.00
2018-04-18T09:10:53.381Z,30016.00
2018-04-18T09:11:53.417Z,31360.00
2018-04-18T09:13:11.709Z,34240.00
2018-04-18T09:13:53.438Z,33600.00
2018-04-18T09:14:53.456Z,31552.00
2018-04-18T09:15:53.467Z,29632.00
2018-04-18T09:16:53.493Z,28320.00
2018-04-18T09:17:53.674Z,28704.00
2018-04-18T09:18:53.532Z,28256.00
2018-04-18T09:19:53.542Z,31744.00
2018-04-18T09:20:53.570Z,34080.00
2018-04-18T09:21:53.580Z,34688.00
2018-04-18T09:22:53.603Z,36512.00
2018-04-18T09:23:53.666Z,35104.00
2018-04-18T09:24:53.639Z,36352.00
2018-04-18T09:25:53.656Z,37632.00
2018-04-18T09:26:53.692Z,36000.00
2018-04-18T09:27:53.696Z,36640.00
2018-04-18T09:29:08.937Z,37824.00
2018-04-18T09:29:53.729Z,37472.00
2018-04-18T09:30:53.743Z,35808.00
2018-04-18T09:31:53.772Z,35968.00
2018-04-18T09:32:53.797Z,36192.00
2018-04-18T09:33:53.865Z,35296.00
2018-04-18T09:34:53.820Z,36320.00
2018-04-18T09:35:53.848Z,38176.00
2018-04-18T09:36:53.870Z,37568.00
2018-04-18T09:37:53.939Z,35808.00
2018-04-18T09:38:53.908Z,35136.00
2018-04-18T09:39:53.928Z,34624.00
2018-04-18T09:40:53.935Z,35904.00
2018-04-18T09:41:53.957Z,37792.00
2018-04-18T09:42:54.036Z,37856.00
2018-04-18T09:43:54.023Z,39488.00
2018-04-18T09:44:54.034Z,40672.00
2018-04-18T09:45:54.045Z,42464.00
2018-04-18T09:46:54.204Z,45184.00
2018-04-18T09:47:54.152Z,47168.00
2018-04-18T09:48:54.106Z,48736.00
2018-04-18T09:49:55.163Z,50848.00
2018-04-18T09:50:54.154Z,51776.00
2018-04-18T09:51:54.202Z,52256.00
2018-04-18T09:52:54.249Z,53056.00
2018-04-18T09:53:54.215Z,54976.00
2018-04-18T09:54:54.238Z,56864.00
2018-04-18T09:55:54.260Z,56320.00
2018-04-18T09:56:54.285Z,57728.00
2018-04-18T09:58:02.187Z,59424.00
2018-04-18T09:58:54.320Z,62240.00
2018-04-18T09:59:54.335Z,65984.00
2018-04-18T10:00:54.372Z,67392.00
2018-04-18T10:01:54.396Z,66848.00
2018-04-18T10:02:54.419Z,69856.00
2018-04-18T10:03:54.491Z,69312.00
2018-04-18T10:04:54.446Z,72320.00
2018-04-18T10:05:54.471Z,74208.00
2018-04-18T10:06:54.500Z,76928.00
2018-04-18T10:07:54.505Z,80608.00
2018-04-18T10:08:54.584Z,84960.00
2018-04-18T10:09:54.564Z,85056.00
2018-04-18T10:10:54.575Z,80992.00
2018-04-18T10:11:55.194Z,88544.00
2018-04-18T10:12:54.616Z,88512.00
2018-04-18T10:13:54.680Z,85152.00
2018-04-18T10:14:54.658Z,92288.00
2018-04-18T10:15:54.681Z,94656.00
2018-04-18T10:16:54.705Z,96192.00
2018-04-18T10:17:54.730Z,100416.00
2018-04-18T10:19:05.686Z,93696.00
2018-04-18T10:19:54.766Z,94208.00
2018-04-18T10:20:54.798Z,99296.00
2018-04-18T10:21:54.790Z,98880.00
2018-04-18T10:22:55.637Z,96640.00
2018-04-18T10:25:26.541Z,101536.00
2018-04-18T10:26:26.563Z,90080.00
2018-04-18T10:27:26.577Z,96320.00
2018-04-18T10:28:34.651Z,98336.00
2018-04-18T10:29:26.627Z,100992.00
2018-04-18T10:30:26.639Z,96256.00
2018-04-18T10:31:26.673Z,95328.00
2018-04-18T10:32:26.689Z,94560.00
2018-04-18T10:33:26.712Z,90112.00
2018-04-18T10:34:26.776Z,96992.00
2018-04-18T10:35:26.759Z,97088.00
2018-04-18T10:36:26.771Z,90944.00
2018-04-18T10:37:27.413Z,100512.00
2018-04-18T10:38:26.815Z,99872.00
2018-04-18T10:39:26.919Z,97792.00
2018-04-18T10:40:26.860Z,100896.00
2018-04-18T10:41:26.885Z,96096.00
2018-04-18T10:42:26.918Z,100448.00
2018-04-18T10:43:26.967Z,98400.00
2018-04-18T10:44:34.649Z,98720.00
2018-04-18T10:45:27.083Z,99744.00
2018-04-18T10:46:26.994Z,99456.00
2018-04-18T10:47:27.019Z,96320.00
2018-04-18T10:48:27.037Z,97216.00
2018-04-18T10:49:27.054Z,101536.00
2018-04-18T10:50:27.141Z,103584.00
2018-04-18T10:51:27.107Z,105088.00
2018-04-18T10:52:27.127Z,96704.00
2018-04-18T10:53:27.142Z,103680.00
2018-04-18T10:54:27.163Z,99648.00
2018-04-18T10:55:38.145Z,98208.00
2018-04-18T10:56:27.204Z,105952.00
2018-04-18T10:57:27.238Z,102656.00
2018-04-18T10:58:27.253Z,102592.00
2018-04-18T10:59:27.276Z,104352.00
2018-04-18T11:00:27.447Z,99840.00
2018-04-18T11:01:27.316Z,102656.00
2018-04-18T11:02:27.342Z,103296.00
2018-04-18T11:03:27.365Z,93408.00
2018-04-18T11:04:27.387Z,95168.00
2018-04-18T11:05:27.585Z,96192.00
2018-04-18T11:06:29.310Z,101920.00
2018-04-18T11:07:27.450Z,104224.00
2018-04-18T11:08:27.478Z,92704.00
2018-04-18T11:09:27.495Z,94592.00
2018-04-18T11:10:27.523Z,99648.00
2018-04-18T11:11:27.688Z,93824.00
2018-04-18T11:12:27.583Z,93760.00
2018-04-18T11:13:27.587Z,104640.00
2018-04-18T11:14:28.634Z,100256.00
2018-04-18T11:15:27.960Z,98592.00
2018-04-18T11:16:33.239Z,99296.00
2018-04-18T11:17:27.676Z,96864.00
2018-04-18T11:18:27.762Z,96480.00
2018-04-18T11:19:27.717Z,91328.00
2018-04-18T11:20:27.817Z,94816.00
2018-04-18T11:21:27.792Z,96864.00
2018-04-18T11:22:42.315Z,100832.00
2018-04-18T11:23:27.845Z,101312.00
2018-04-18T11:24:27.846Z,101472.00
2018-04-18T11:25:27.926Z,95168.00
2018-04-18T11:26:27.971Z,99744.00
2018-04-18T11:27:28.960Z,107104.00
2018-04-18T11:28:27.919Z,98752.00
2018-04-18T11:29:27.934Z,102720.00
2018-04-18T11:30:27.951Z,102912.00
2018-04-18T11:31:27.966Z,98592.00
2018-04-18T11:33:03.164Z,103424.00
2018-04-18T11:33:28.011Z,98624.00
2018-04-18T11:34:28.027Z,101632.00
2018-04-18T11:35:28.052Z,107712.00
2018-04-18T11:36:31.171Z,109440.00
2018-04-18T11:37:28.093Z,104256.00
2018-04-18T11:38:28.125Z,108480.00
2018-04-18T11:39:28.832Z,108704.00
2018-04-18T11:40:28.152Z,108640.00
2018-04-18T11:42:07.675Z,104960.00
2018-04-18T11:42:28.196Z,103808.00
2018-04-18T11:43:28.816Z,103968.00
2018-04-18T11:44:28.713Z,103936.00
2018-04-18T11:45:28.379Z,108960.00
2018-04-18T11:46:28.275Z,106336.00
2018-04-18T11:49:02.083Z,103968.00
2018-04-18T11:50:00.526Z,105248.00
2018-04-18T11:51:00.546Z,106880.00
2018-04-18T11:52:00.635Z,103552.00
2018-04-18T11:53:00.591Z,101792.00
2018-04-18T11:54:00.612Z,100608.00
2018-04-18T11:55:00.638Z,102944.00
2018-04-18T11:56:00.695Z,101760.00
2018-04-18T11:57:00.855Z,103712.00
2018-04-18T11:58:00.691Z,103872.00
2018-04-18T11:59:00.730Z,100864.00
2018-04-18T12:00:00.735Z,100960.00
2018-04-18T12:01:00.773Z,107200.00
2018-04-18T12:02:00.798Z,103456.00
2018-04-18T12:03:04.124Z,98336.00
2018-04-18T12:04:00.825Z,96192.00
2018-04-18T12:05:00.845Z,96160.00
2018-04-18T12:06:00.867Z,97984.00
2018-04-18T12:07:00.897Z,99232.00
2018-04-18T12:08:36.148Z,98720.00
2018-04-18T12:09:00.941Z,99328.00
2018-04-18T12:10:00.985Z,98560.00
2018-04-18T12:11:01.020Z,94688.00
2018-04-18T12:12:01.020Z,96512.00
2018-04-18T12:13:01.174Z,96192.00
2018-04-18T12:14:01.068Z,97824.00
2018-04-18T12:15:02.046Z,102560.00
2018-04-18T12:16:01.263Z,104160.00
2018-04-18T12:17:01.191Z,103136.00
2018-04-18T12:19:32.936Z,109792.00
2018-04-18T12:20:32.812Z,107456.00